Time;durP1;ratioP1;P1;durP2;ratioP2;P2;SDS_P1;SDS_P2;PMS_P1;PMS_P2;Temp;Humidity;BMP_temperature;BMP_pressure;BME280_temperature;BME280_humidity;BME280_pressure;Samples;Min_cycle;Max_cycle;Signal;HPM_P1;HPM_P2
2022/11/23 00:02:40;;;;;;;3.20;1.83;;;7.30;99.90;;;;;;6215106;28;20480;-62
2022/11/23 00:05:43;;;;;;;1.77;1.67;;;7.40;99.90;;;;;;6217089;28;20484;-62
2022/11/23 00:08:49;;;;;;;1.30;1.20;;;7.40;99.90;;;;;;6214386;28;20480;-63
2022/11/23 00:11:52;;;;;;;5.73;5.20;;;7.40;99.90;;;;;;6215769;28;20468;-63
2022/11/23 00:14:55;;;;;;;2.40;2.00;;;7.50;99.90;;;;;;6215836;28;20487;-63
2022/11/23 00:17:59;;;;;;;1.50;1.20;;;7.50;99.90;;;;;;6207113;28;20476;-62
2022/11/23 00:21:06;;;;;;;4.90;2.40;;;7.50;99.90;;;;;;6228248;28;20488;-62
2022/11/23 00:24:13;;;;;;;1.80;1.70;;;7.50;99.90;;;;;;6245273;28;20782;-62
2022/11/23 00:27:16;;;;;;;3.07;2.87;;;7.50;99.90;;;;;;6243476;28;20510;-62
2022/11/23 00:30:19;;;;;;;1.87;1.77;;;7.50;99.90;;;;;;6252875;28;20554;-62
2022/11/23 00:33:23;;;;;;;1.60;1.33;;;7.50;99.90;;;;;;6252128;28;20931;-63
2022/11/23 00:36:27;;;;;;;1.30;1.20;;;7.60;99.90;;;;;;6252366;28;20514;-63
2022/11/23 00:39:31;;;;;;;1.43;1.10;;;7.60;99.90;;;;;;6251999;28;20467;-63
2022/11/23 00:42:35;;;;;;;0.70;0.70;;;7.60;99.90;;;;;;6252766;28;21072;-63
2022/11/23 00:45:40;;;;;;;1.10;1.00;;;7.50;99.90;;;;;;6240654;28;20464;-62
2022/11/23 00:48:44;;;;;;;1.37;1.27;;;7.50;99.90;;;;;;6227907;28;20468;-63
2022/11/23 00:51:47;;;;;;;1.83;0.93;;;7.50;99.90;;;;;;6228706;28;20476;-63
2022/11/23 00:54:52;;;;;;;1.03;0.90;;;7.50;99.90;;;;;;6227652;28;20586;-62
2022/11/23 00:57:55;;;;;;;1.63;1.20;;;7.50;99.90;;;;;;6227904;28;20483;-63
2022/11/23 01:01:03;;;;;;;0.90;0.80;;;7.50;99.90;;;;;;6227592;28;20469;-59
2022/11/23 01:04:08;;;;;;;1.80;1.37;;;7.50;99.90;;;;;;6227981;28;20484;-61
2022/11/23 01:07:11;;;;;;;1.83;1.50;;;7.50;99.90;;;;;;6227341;28;20477;-60
2022/11/23 01:10:16;;;;;;;1.20;1.10;;;7.50;99.90;;;;;;6212582;28;20485;-63
2022/11/23 01:13:19;;;;;;;1.47;1.37;;;7.50;99.90;;;;;;6202219;28;20488;-63
2022/11/23 01:16:24;;;;;;;1.43;1.20;;;7.50;99.90;;;;;;6202492;28;20480;-63
2022/11/23 01:19:29;;;;;;;2.73;2.53;;;7.60;99.90;;;;;;6202695;28;20485;-63
2022/11/23 01:22:32;;;;;;;1.20;1.20;;;7.50;99.90;;;;;;6209905;28;20463;-64
2022/11/23 01:25:37;;;;;;;1.80;1.70;;;7.50;99.90;;;;;;6251955;28;20479;-63
2022/11/23 01:28:40;;;;;;;2.37;1.83;;;7.40;99.90;;;;;;6251254;28;20602;-63
2022/11/23 01:31:43;;;;;;;1.87;1.77;;;7.40;99.90;;;;;;6247059;28;20475;-63
2022/11/23 01:34:49;;;;;;;2.50;2.30;;;7.40;99.90;;;;;;6251358;28;20475;-59
2022/11/23 01:37:52;;;;;;;2.90;2.70;;;7.40;99.90;;;;;;6250947;28;20533;-58
2022/11/23 01:40:57;;;;;;;3.83;2.43;;;7.30;99.90;;;;;;6249858;28;20478;-58
2022/11/23 01:44:00;;;;;;;3.00;2.80;;;7.30;99.90;;;;;;6250454;28;20479;-58
2022/11/23 01:47:05;;;;;;;4.47;4.07;;;7.20;99.90;;;;;;6227598;28;20476;-58
2022/11/23 01:50:08;;;;;;;4.67;4.17;;;7.20;99.90;;;;;;6226470;28;20546;-58
2022/11/23 01:53:11;;;;;;;4.37;3.97;;;7.20;99.90;;;;;;6226208;28;20483;-58
2022/11/23 01:56:19;;;;;;;6.73;5.30;;;7.20;99.90;;;;;;6226175;28;20480;-58
2022/11/23 01:59:25;;;;;;;8.40;5.50;;;7.20;99.90;;;;;;6225810;28;20816;-58
2022/11/23 02:02:31;;;;;;;5.63;5.20;;;7.10;99.90;;;;;;6225658;28;20956;-58
2022/11/23 02:05:42;;;;;;;6.90;5.40;;;7.10;99.90;;;;;;6225549;28;20492;-58
2022/11/23 02:08:46;;;;;;;5.93;5.43;;;7.00;99.90;;;;;;6227112;28;20831;-58
2022/11/23 02:11:51;;;;;;;5.83;5.30;;;7.00;99.90;;;;;;6226959;28;20483;-58
2022/11/23 02:14:55;;;;;;;5.43;4.93;;;7.00;99.90;;;;;;6225337;28;20499;-59
2022/11/23 02:18:01;;;;;;;5.23;4.70;;;7.00;99.90;;;;;;6225171;28;20475;-58
2022/11/23 02:21:04;;;;;;;6.30;5.80;;;7.00;99.90;;;;;;6225316;28;20476;-58
2022/11/23 02:24:15;;;;;;;5.27;4.77;;;7.00;99.90;;;;;;6241549;28;20471;-58
2022/11/23 02:27:20;;;;;;;7.67;5.00;;;7.00;99.90;;;;;;6249685;28;20454;-58
2022/11/23 02:30:23;;;;;;;5.77;5.27;;;7.00;99.90;;;;;;6211501;28;20429;-59
2022/11/23 02:33:27;;;;;;;5.47;4.97;;;6.90;99.90;;;;;;6205294;28;20451;-59
2022/11/23 02:36:40;;;;;;;4.60;4.20;;;7.00;99.90;;;;;;6224795;28;20464;-59
2022/11/23 02:39:48;;;;;;;4.80;4.40;;;7.00;99.90;;;;;;6225598;28;20464;-59
2022/11/23 02:42:52;;;;;;;6.57;5.03;;;7.00;99.90;;;;;;6225239;28;20478;-59
2022/11/23 02:46:13;;;;;;;5.30;4.40;;;7.00;99.90;;;;;;6224826;28;20496;-59
2022/11/23 02:49:16;;;;;;;4.77;4.37;;;7.00;99.90;;;;;;6225294;28;20562;-59
2022/11/23 02:52:19;;;;;;;3.83;3.53;;;7.00;99.90;;;;;;6227531;28;20928;-59
2022/11/23 02:55:23;;;;;;;4.10;3.70;;;7.00;99.90;;;;;;6229935;28;20542;-59
2022/11/23 02:58:27;;;;;;;3.60;3.30;;;7.00;99.90;;;;;;6229556;28;20483;-59
2022/11/23 03:01:30;;;;;;;3.97;3.67;;;7.00;99.90;;;;;;6229545;28;20895;-59
2022/11/23 03:04:33;;;;;;;4.77;3.87;;;7.00;99.90;;;;;;6231165;28;20487;-60
2022/11/23 03:07:36;;;;;;;4.23;3.83;;;7.00;99.90;;;;;;6231453;28;20533;-60
2022/11/23 03:10:40;;;;;;;4.20;3.80;;;7.00;99.90;;;;;;6229732;28;20529;-60
2022/11/23 03:13:44;;;;;;;4.13;3.73;;;6.90;99.90;;;;;;6229042;28;20482;-60
2022/11/23 03:16:47;;;;;;;5.40;4.47;;;6.90;99.90;;;;;;6229482;28;20476;-60
2022/11/23 03:19:50;;;;;;;23.83;15.50;;;6.90;99.90;;;;;;6229456;28;20487;-60
2022/11/23 03:22:54;;;;;;;6.97;5.90;;;6.90;99.90;;;;;;6235266;28;20475;-60
2022/11/23 03:25:57;;;;;;;6.90;5.50;;;6.90;99.90;;;;;;6253555;28;20549;-60
2022/11/23 03:29:02;;;;;;;7.10;6.40;;;7.00;99.90;;;;;;6254054;28;20470;-60
2022/11/23 03:32:05;;;;;;;13.27;10.27;;;7.00;99.90;;;;;;6253521;28;20471;-60
2022/11/23 03:35:09;;;;;;;15.80;11.70;;;6.90;99.90;;;;;;6253455;28;20951;-60
2022/11/23 03:38:12;;;;;;;11.83;9.63;;;6.90;99.90;;;;;;6244330;28;20969;-60
2022/11/23 03:41:15;;;;;;;5.90;5.30;;;7.00;99.90;;;;;;6253115;28;20943;-60
2022/11/23 03:44:20;;;;;;;8.33;7.43;;;7.00;99.90;;;;;;6252283;28;20479;-60
2022/11/23 03:47:23;;;;;;;15.30;11.50;;;7.00;99.90;;;;;;6228988;28;20518;-60
2022/11/23 03:50:28;;;;;;;9.40;8.33;;;6.90;99.90;;;;;;6228562;28;20491;-60
2022/11/23 03:53:31;;;;;;;7.53;6.83;;;6.90;99.90;;;;;;6228545;28;20799;-60
2022/11/23 03:56:34;;;;;;;9.33;8.50;;;6.90;99.90;;;;;;6228238;28;20783;-60
2022/11/23 03:59:39;;;;;;;9.53;8.63;;;6.90;99.90;;;;;;6228457;28;20843;-60
2022/11/23 04:02:42;;;;;;;11.00;7.60;;;6.90;99.90;;;;;;6227297;28;20488;-60
2022/11/23 04:05:45;;;;;;;8.90;8.03;;;6.90;99.90;;;;;;6227982;28;20476;-60
2022/11/23 04:08:48;;;;;;;5.27;4.57;;;6.90;99.90;;;;;;6228212;28;20509;-60
2022/11/23 04:11:51;;;;;;;5.67;4.33;;;6.90;99.90;;;;;;6228150;28;20472;-60
2022/11/23 04:14:56;;;;;;;4.90;4.40;;;6.80;99.90;;;;;;6228113;28;20488;-59
2022/11/23 04:17:59;;;;;;;4.33;4.00;;;6.90;99.90;;;;;;6227462;28;20967;-59
2022/11/23 04:21:02;;;;;;;5.20;4.80;;;6.90;99.90;;;;;;6227817;28;20491;-59
2022/11/23 04:24:06;;;;;;;5.80;5.30;;;6.80;99.90;;;;;;6243623;28;20975;-59
2022/11/23 04:27:09;;;;;;;5.90;5.40;;;6.80;99.90;;;;;;6252481;28;20482;-59
2022/11/23 04:30:15;;;;;;;6.33;5.80;;;6.80;99.90;;;;;;6251277;28;20970;-59
2022/11/23 04:33:18;;;;;;;5.27;4.77;;;6.80;99.90;;;;;;6252510;28;20447;-59
2022/11/23 04:36:21;;;;;;;6.13;5.63;;;6.80;99.90;;;;;;6251787;28;20478;-59
2022/11/23 04:39:24;;;;;;;5.20;4.47;;;6.80;99.90;;;;;;6247834;28;20454;-59
2022/11/23 04:42:27;;;;;;;4.73;4.33;;;6.80;99.90;;;;;;6251694;28;20486;-59
2022/11/23 04:45:32;;;;;;;5.73;5.13;;;6.80;99.90;;;;;;6241004;28;20475;-59
2022/11/23 04:48:35;;;;;;;5.87;5.00;;;6.70;99.90;;;;;;6226932;28;20471;-59
2022/11/23 04:51:38;;;;;;;5.93;5.33;;;6.60;99.90;;;;;;6226922;28;20471;-59
2022/11/23 04:54:41;;;;;;;6.50;5.90;;;6.70;99.90;;;;;;6227028;28;20476;-59
2022/11/23 04:57:44;;;;;;;6.93;6.33;;;6.70;99.90;;;;;;6227263;28;20503;-60
2022/11/23 05:00:49;;;;;;;6.70;6.10;;;6.70;99.90;;;;;;6226804;28;20471;-59
2022/11/23 05:03:52;;;;;;;6.80;6.17;;;6.70;99.90;;;;;;6227641;28;20475;-59
2022/11/23 05:06:55;;;;;;;7.07;6.40;;;6.70;99.90;;;;;;6227737;28;20940;-59
2022/11/23 05:09:58;;;;;;;6.30;5.70;;;6.70;99.90;;;;;;6226961;28;20472;-59
2022/11/23 05:13:01;;;;;;;7.43;6.30;;;6.70;99.90;;;;;;6227018;28;20483;-59
2022/11/23 05:16:07;;;;;;;7.03;6.47;;;6.70;99.90;;;;;;6225349;28;20547;-59
2022/11/23 05:19:11;;;;;;;7.60;6.90;;;6.70;99.90;;;;;;6226917;28;20483;-59
2022/11/23 05:22:14;;;;;;;6.73;6.20;;;6.70;99.90;;;;;;6227215;28;20476;-59
2022/11/23 05:25:17;;;;;;;6.30;5.70;;;6.80;99.90;;;;;;6251103;28;20479;-59
2022/11/23 05:28:22;;;;;;;5.73;5.27;;;6.90;99.90;;;;;;6250510;28;20954;-59
2022/11/23 05:31:44;;;;;;;5.20;4.70;;;7.00;99.90;;;;;;6251307;28;20478;-60
2022/11/23 05:34:47;;;;;;;7.73;7.13;;;7.00;99.90;;;;;;6250736;28;20476;-57
2022/11/23 05:37:50;;;;;;;6.80;6.20;;;6.90;99.90;;;;;;6250612;28;20471;-58
2022/11/23 05:40:53;;;;;;;5.90;5.40;;;6.90;99.90;;;;;;6249048;28;20479;-58
2022/11/23 05:43:56;;;;;;;5.60;5.10;;;7.00;99.90;;;;;;6225796;28;20487;-59
2022/11/23 05:47:01;;;;;;;5.90;5.20;;;7.00;99.90;;;;;;6226102;28;20992;-61
2022/11/23 05:50:05;;;;;;;6.80;6.00;;;7.10;99.90;;;;;;6225771;28;20476;-62
2022/11/23 05:53:09;;;;;;;6.20;5.47;;;7.10;99.90;;;;;;6225441;28;20476;-62
2022/11/23 05:56:13;;;;;;;8.13;4.63;;;7.10;99.90;;;;;;6225862;28;20530;-61
2022/11/23 05:59:16;;;;;;;4.20;3.80;;;7.10;99.90;;;;;;6225944;28;20925;-61
2022/11/23 06:02:20;;;;;;;7.33;6.43;;;7.20;99.90;;;;;;6225668;28;20982;-62
2022/11/23 06:05:23;;;;;;;16.17;14.67;;;7.10;99.90;;;;;;6225646;28;20476;-61
2022/11/23 06:08:26;;;;;;;10.73;9.83;;;7.20;99.90;;;;;;6225660;28;20476;-62
2022/11/23 06:11:30;;;;;;;8.73;7.93;;;7.10;99.90;;;;;;6227738;28;20472;-62
2022/11/23 06:14:33;;;;;;;7.93;7.13;;;7.10;99.90;;;;;;6226307;28;20488;-63
2022/11/23 06:17:38;;;;;;;13.03;8.20;;;7.00;99.90;;;;;;6245153;28;20478;-63
2022/11/23 06:20:41;;;;;;;8.03;7.27;;;7.00;99.90;;;;;;6229045;28;20487;-63
2022/11/23 06:23:44;;;;;;;11.50;8.17;;;7.00;99.90;;;;;;6238111;28;20475;-62
2022/11/23 06:26:47;;;;;;;9.00;7.40;;;6.90;99.90;;;;;;6249418;28;20471;-63
2022/11/23 06:29:50;;;;;;;9.00;8.17;;;6.70;99.90;;;;;;6249500;28;20482;-62
2022/11/23 06:32:55;;;;;;;9.07;6.60;;;6.80;99.90;;;;;;6249534;28;20846;-63
2022/11/23 06:36:01;;;;;;;8.43;7.53;;;6.80;99.90;;;;;;6249120;28;20490;-63
2022/11/23 06:39:04;;;;;;;8.90;7.60;;;6.90;99.90;;;;;;6249098;28;21014;-63
2022/11/23 06:42:07;;;;;;;8.47;7.63;;;6.90;99.90;;;;;;6249092;28;20479;-63
2022/11/23 06:45:30;;;;;;;7.50;6.80;;;7.00;99.90;;;;;;6265749;28;20487;-61
2022/11/23 06:48:35;;;;;;;7.90;7.20;;;6.90;99.90;;;;;;6241561;28;20467;-62
2022/11/23 06:51:38;;;;;;;8.00;7.20;;;6.90;99.90;;;;;;6249810;28;20478;-62
2022/11/23 06:54:41;;;;;;;7.60;6.80;;;7.00;99.90;;;;;;6251066;28;20474;-63
2022/11/23 06:57:44;;;;;;;6.03;5.53;;;7.10;99.90;;;;;;6250665;28;20467;-64
2022/11/23 07:00:47;;;;;;;7.20;6.50;;;7.10;99.90;;;;;;6250750;28;20478;-64
2022/11/23 07:03:52;;;;;;;7.70;7.00;;;7.20;99.90;;;;;;6250677;28;20474;-64
2022/11/23 07:06:55;;;;;;;11.70;9.20;;;7.20;99.90;;;;;;6250289;28;20511;-62
2022/11/23 07:09:58;;;;;;;11.10;8.93;;;7.20;99.90;;;;;;6250075;28;20556;-62
2022/11/23 07:13:10;;;;;;;6.13;5.60;;;7.30;99.90;;;;;;6249525;28;20544;-62
2022/11/23 07:16:13;;;;;;;10.00;9.07;;;7.30;99.90;;;;;;6249090;28;20478;-62
2022/11/23 07:19:18;;;;;;;8.43;7.63;;;7.40;99.90;;;;;;6249022;28;20463;-61
2022/11/23 07:22:21;;;;;;;64.93;58.60;;;7.40;99.90;;;;;;6250498;28;20471;-61
2022/11/23 07:25:24;;;;;;;46.27;41.20;;;7.40;99.90;;;;;;6274263;28;20478;-61
2022/11/23 07:28:27;;;;;;;11.87;10.77;;;7.50;99.90;;;;;;6274383;28;20477;-61
2022/11/23 07:31:30;;;;;;;5.90;5.50;;;7.50;99.90;;;;;;6265240;28;20463;-61
2022/11/23 07:34:35;;;;;;;4.30;4.00;;;7.50;99.90;;;;;;6264290;28;20471;-60
2022/11/23 07:37:38;;;;;;;2.87;2.67;;;7.60;99.90;;;;;;6269804;28;20825;-60
2022/11/23 07:40:41;;;;;;;2.20;2.00;;;7.60;99.90;;;;;;6270705;28;20478;-60
2022/11/23 07:43:44;;;;;;;2.57;2.37;;;7.60;99.90;;;;;;6264353;28;20482;-62
2022/11/23 07:46:48;;;;;;;2.30;2.10;;;7.60;99.90;;;;;;6266014;28;20474;-63
2022/11/23 07:49:52;;;;;;;2.20;2.00;;;7.60;99.90;;;;;;6257247;28;20467;-63
2022/11/23 07:52:55;;;;;;;7.33;6.67;;;7.70;99.90;;;;;;6237610;28;20478;-63
2022/11/23 07:55:59;;;;;;;15.27;13.70;;;7.70;99.90;;;;;;6241584;28;20599;-62
2022/11/23 07:59:02;;;;;;;8.40;6.57;;;7.80;99.90;;;;;;6242618;28;21961;-62
2022/11/23 08:02:05;;;;;;;17.73;12.50;;;7.80;99.90;;;;;;6252369;28;20474;-63
2022/11/23 08:05:10;;;;;;;12.30;7.50;;;7.80;99.90;;;;;;6277717;28;20470;-62
2022/11/23 08:08:16;;;;;;;8.83;5.40;;;7.80;99.90;;;;;;6276162;28;20474;-63
2022/11/23 08:11:21;;;;;;;8.07;5.00;;;7.90;99.90;;;;;;6262966;28;20485;-63
2022/11/23 08:14:24;;;;;;;5.37;4.07;;;7.90;99.90;;;;;;6253393;28;20471;-62
2022/11/23 08:17:27;;;;;;;8.13;6.20;;;8.00;99.90;;;;;;6249940;28;20488;-63
2022/11/23 08:20:33;;;;;;;8.47;6.37;;;8.00;99.90;;;;;;6250926;28;20479;-63
2022/11/23 08:23:36;;;;;;;8.40;5.77;;;8.10;99.90;;;;;;6262412;28;20486;-61
2022/11/23 08:26:39;;;;;;;5.30;4.40;;;8.10;99.90;;;;;;6250859;28;20483;-63
2022/11/23 08:29:42;;;;;;;4.60;4.10;;;8.20;99.90;;;;;;6250460;28;20478;-63
2022/11/23 08:32:45;;;;;;;2.20;1.57;;;8.30;99.90;;;;;;6250299;28;20463;-63
2022/11/23 08:35:50;;;;;;;3.03;2.43;;;8.30;99.90;;;;;;6250552;28;20660;-63
2022/11/23 08:38:53;;;;;;;3.77;3.47;;;8.30;99.90;;;;;;6251382;28;20663;-63
2022/11/23 08:41:56;;;;;;;2.73;2.53;;;8.40;99.90;;;;;;6251132;28;20532;-63
2022/11/23 08:45:02;;;;;;;2.60;2.40;;;8.50;99.90;;;;;;6250635;28;20982;-64
2022/11/23 08:48:05;;;;;;;2.20;2.00;;;8.60;99.90;;;;;;6260102;28;20478;-64
2022/11/23 08:51:11;;;;;;;3.00;2.53;;;8.70;99.90;;;;;;6253389;28;20466;-63
2022/11/23 08:54:14;;;;;;;2.30;1.50;;;8.80;99.90;;;;;;6252690;28;20467;-65
2022/11/23 08:57:17;;;;;;;1.87;1.70;;;8.80;99.90;;;;;;6251604;28;20455;-65
2022/11/23 09:00:20;;;;;;;1.80;1.70;;;8.90;99.90;;;;;;6253942;28;20505;-64
2022/11/23 09:03:24;;;;;;;4.03;1.40;;;9.00;99.90;;;;;;6251214;28;20544;-65
2022/11/23 09:06:28;;;;;;;1.37;1.30;;;9.00;99.90;;;;;;6262229;28;20520;-65
2022/11/23 09:09:31;;;;;;;2.30;1.27;;;9.10;99.90;;;;;;6268060;28;20439;-64
2022/11/23 09:12:34;;;;;;;1.83;1.50;;;9.10;99.90;;;;;;6253956;28;20444;-63
2022/11/23 09:15:38;;;;;;;3.43;1.90;;;9.10;99.90;;;;;;6245760;28;20522;-64
2022/11/23 09:18:41;;;;;;;2.67;2.07;;;9.20;99.90;;;;;;6252438;28;20785;-64
2022/11/23 09:21:45;;;;;;;5.93;2.67;;;9.30;99.90;;;;;;6272808;28;20462;-64
2022/11/23 09:24:49;;;;;;;2.20;2.00;;;9.30;99.90;;;;;;6272973;28;20818;-64
2022/11/23 09:27:58;;;;;;;2.00;1.70;;;9.40;99.90;;;;;;6262993;28;20474;-63
2022/11/23 09:31:04;;;;;;;1.53;1.13;;;9.50;99.90;;;;;;6261842;28;20962;-64
2022/11/23 09:34:07;;;;;;;1.20;1.10;;;9.50;99.90;;;;;;6256338;28;20483;-63
2022/11/23 09:37:12;;;;;;;1.77;1.20;;;9.50;99.90;;;;;;6251877;28;20850;-63
2022/11/23 09:40:17;;;;;;;2.13;0.90;;;9.60;99.90;;;;;;6251340;28;20486;-64
2022/11/23 09:43:44;;;;;;;1.53;1.43;;;9.60;99.90;;;;;;6251654;28;20487;-63
2022/11/23 09:47:00;;;;;;;2.07;1.13;;;9.60;99.90;;;;;;6242579;28;20468;-62
2022/11/23 09:50:13;;;;;;;2.60;1.27;;;9.50;99.90;;;;;;6228816;28;20495;-63
2022/11/23 09:53:21;;;;;;;1.30;1.20;;;9.50;99.90;;;;;;6251646;28;20475;-63
2022/11/23 09:56:29;;;;;;;1.23;0.90;;;9.50;99.90;;;;;;6251934;28;20496;-63
2022/11/23 09:59:41;;;;;;;0.90;0.90;;;9.60;99.90;;;;;;6251585;28;20487;-64
2022/11/23 10:02:44;;;;;;;0.97;0.90;;;9.70;99.90;;;;;;6251436;28;20482;-63
2022/11/23 10:05:57;;;;;;;1.00;1.00;;;9.70;99.90;;;;;;6251049;28;20467;-63
2022/11/23 10:09:21;;;;;;;1.00;0.73;;;9.80;99.90;;;;;;6250547;28;20487;-63
2022/11/23 10:12:38;;;;;;;0.90;0.90;;;9.90;99.90;;;;;;6252100;28;20451;-63
2022/11/23 10:15:53;;;;;;;1.30;1.00;;;9.80;99.90;;;;;;6252210;28;20486;-63
2022/11/23 10:19:03;;;;;;;0.87;0.63;;;9.80;99.90;;;;;;6227959;28;20527;-64
2022/11/23 10:22:16;;;;;;;1.17;1.00;;;9.80;99.90;;;;;;6228560;28;20468;-64
2022/11/23 10:25:22;;;;;;;2.33;1.10;;;9.90;99.90;;;;;;6227465;28;20476;-64
2022/11/23 10:28:30;;;;;;;1.20;1.07;;;9.80;99.90;;;;;;6239974;28;20477;-62
2022/11/23 10:31:34;;;;;;;1.87;1.10;;;9.90;99.90;;;;;;6258236;28;20874;-62
2022/11/23 10:34:51;;;;;;;2.20;1.60;;;9.90;99.90;;;;;;6261993;28;20494;-62
2022/11/23 10:38:08;;;;;;;7.90;5.30;;;10.00;99.90;;;;;;6249378;28;21064;-63
2022/11/23 10:41:24;;;;;;;7.50;6.20;;;9.90;99.90;;;;;;6254322;28;20553;-63
2022/11/23 10:44:32;;;;;;;7.00;6.20;;;9.80;99.90;;;;;;6271035;28;20497;-63
2022/11/23 10:47:42;;;;;;;9.27;7.20;;;9.90;99.90;;;;;;6258217;28;20475;-63
2022/11/23 10:50:46;;;;;;;6.77;6.20;;;9.80;99.90;;;;;;6249626;28;20927;-63
2022/11/23 10:53:53;;;;;;;7.80;7.00;;;9.80;99.90;;;;;;6249587;28;20471;-62
2022/11/23 10:56:59;;;;;;;8.33;7.30;;;9.70;99.90;;;;;;6249324;28;20471;-63
2022/11/23 11:00:15;;;;;;;7.80;7.10;;;9.50;99.90;;;;;;6250041;28;20467;-64
2022/11/23 11:03:23;;;;;;;10.37;9.37;;;9.50;99.90;;;;;;6240746;28;20829;-63
2022/11/23 11:06:29;;;;;;;10.07;9.07;;;9.40;99.90;;;;;;6250021;28;20456;-63
2022/11/23 11:09:32;;;;;;;9.33;8.50;;;9.50;99.90;;;;;;6249764;28;20460;-63
2022/11/23 11:12:51;;;;;;;7.93;7.13;;;9.60;99.90;;;;;;6251398;28;20482;-63
2022/11/23 11:15:56;;;;;;;11.63;10.50;;;9.60;99.90;;;;;;6253849;28;20965;-63
2022/11/23 11:18:59;;;;;;;9.90;8.13;;;9.60;99.90;;;;;;6254444;28;20546;-63
2022/11/23 11:22:24;;;;;;;16.30;13.80;;;9.60;99.90;;;;;;6254600;28;20471;-63
2022/11/23 11:25:30;;;;;;;11.57;10.43;;;9.70;99.90;;;;;;6247795;28;20951;-64
2022/11/23 11:28:38;;;;;;;12.37;10.90;;;9.70;99.90;;;;;;6254956;28;20482;-63
2022/11/23 11:31:52;;;;;;;14.70;13.13;;;9.80;99.90;;;;;;6257498;28;20471;-63
2022/11/23 11:35:00;;;;;;;8.90;8.10;;;9.80;99.90;;;;;;6254491;28;20467;-63
2022/11/23 11:38:11;;;;;;;8.20;7.50;;;9.70;99.90;;;;;;6254310;28;20471;-62
2022/11/23 11:41:18;;;;;;;8.03;7.23;;;9.60;99.90;;;;;;6254020;28;20528;-62
2022/11/23 11:44:24;;;;;;;8.60;6.90;;;9.70;99.90;;;;;;6253883;28;20519;-59
2022/11/23 11:47:31;;;;;;;8.07;6.90;;;9.60;99.90;;;;;;6253480;28;20490;-60
2022/11/23 11:50:43;;;;;;;8.20;7.43;;;9.50;99.90;;;;;;6253538;28;20958;-59
2022/11/23 11:53:55;;;;;;;9.00;8.10;;;9.60;99.90;;;;;;6253129;28;20479;-62
2022/11/23 11:57:04;;;;;;;9.10;8.20;;;9.60;99.90;;;;;;6253586;28;20470;-62
2022/11/23 12:00:15;;;;;;;6.93;6.30;;;9.60;99.90;;;;;;6253829;28;20472;-62
2022/11/23 12:03:29;;;;;;;7.70;6.90;;;9.70;99.90;;;;;;6253378;28;20915;-61
2022/11/23 12:06:37;;;;;;;9.50;6.30;;;9.80;99.90;;;;;;6251811;28;20486;-62
2022/11/23 12:09:46;;;;;;;6.63;6.03;;;9.80;99.90;;;;;;6254075;28;20561;-62
2022/11/23 12:12:49;;;;;;;7.50;6.80;;;9.90;99.90;;;;;;6253635;28;20478;-62
2022/11/23 12:16:01;;;;;;;6.97;6.37;;;10.00;99.90;;;;;;6251290;28;20577;-61
2022/11/23 12:19:14;;;;;;;10.37;6.97;;;10.00;99.90;;;;;;6264889;28;20963;-62
2022/11/23 12:22:27;;;;;;;7.50;6.40;;;10.10;99.90;;;;;;6277877;28;20505;-61
2022/11/23 12:25:35;;;;;;;11.37;10.00;;;10.10;99.90;;;;;;6258234;28;21129;-60
2022/11/23 12:28:53;;;;;;;11.03;9.70;;;10.10;99.90;;;;;;6253224;28;20919;-60
2022/11/23 12:32:09;;;;;;;8.00;6.90;;;10.20;99.90;;;;;;6250646;28;20509;-60
2022/11/23 12:35:44;;;;;;;7.10;6.50;;;10.20;99.90;;;;;;6251655;28;20486;-60
2022/11/23 12:38:54;;;;;;;9.53;6.40;;;10.30;99.90;;;;;;6251774;28;20478;-60
2022/11/23 12:42:06;;;;;;;5.50;5.00;;;10.20;99.90;;;;;;6262383;28;20471;-60
2022/11/23 12:45:29;;;;;;;7.37;6.67;;;10.20;99.90;;;;;;6256850;28;20971;-61
2022/11/23 12:48:57;;;;;;;7.90;5.50;;;10.20;99.90;;;;;;6228565;28;20483;-61
2022/11/23 12:52:10;;;;;;;6.73;5.00;;;10.30;99.90;;;;;;6227745;28;20468;-60
2022/11/23 12:55:22;;;;;;;5.87;5.30;;;10.20;99.90;;;;;;6227673;28;20499;-61
2022/11/23 12:58:28;;;;;;;6.10;5.60;;;10.20;99.90;;;;;;6227618;28;20468;-61
2022/11/23 13:01:36;;;;;;;6.27;5.70;;;10.00;99.90;;;;;;6227513;28;20570;-61
2022/11/23 13:05:03;;;;;;;6.50;5.90;;;9.90;99.90;;;;;;6227229;28;20952;-61
2022/11/23 13:08:27;;;;;;;7.73;6.63;;;10.00;99.90;;;;;;6227626;28;20476;-61
2022/11/23 13:11:45;;;;;;;7.63;6.53;;;10.00;99.90;;;;;;6256443;28;20466;-61
2022/11/23 13:15:05;;;;;;;8.20;6.63;;;9.90;99.90;;;;;;6262626;28;20514;-61
2022/11/23 13:18:16;;;;;;;7.53;6.80;;;9.80;99.90;;;;;;6257212;28;20478;-62
2022/11/23 13:21:30;;;;;;;6.80;5.90;;;9.70;99.90;;;;;;6256280;28;20889;-62
2022/11/23 13:24:37;;;;;;;6.63;5.90;;;9.60;99.90;;;;;;6264401;28;20478;-61
2022/11/23 13:27:54;;;;;;;7.67;6.37;;;9.60;99.90;;;;;;6262450;28;20533;-61
2022/11/23 13:31:23;;;;;;;7.10;6.30;;;9.60;99.90;;;;;;6272248;28;20482;-60
2022/11/23 13:34:47;;;;;;;10.10;6.60;;;9.70;99.90;;;;;;6246312;28;20473;-62
2022/11/23 13:38:23;;;;;;;6.20;5.70;;;9.60;99.90;;;;;;6227146;28;20476;-62
2022/11/23 13:41:59;;;;;;;10.90;9.50;;;9.60;99.90;;;;;;6234172;28;20974;-61
2022/11/23 13:45:25;;;;;;;16.83;12.17;;;9.60;99.90;;;;;;6250222;28;20484;-61
2022/11/23 13:48:28;;;;;;;16.73;10.03;;;9.60;99.90;;;;;;6250883;28;20463;-61
2022/11/23 13:52:22;;;;;;;10.87;7.37;;;9.50;99.90;;;;;;6229689;28;20494;-62
2022/11/23 13:55:34;;;;;;;34.07;17.77;;;9.50;99.90;;;;;;6227245;28;20475;-61
2022/11/23 13:58:39;;;;;;;61.27;30.50;;;9.40;99.90;;;;;;6226415;28;20555;-61
2022/11/23 14:02:03;;;;;;;24.33;14.63;;;9.40;99.90;;;;;;6239167;28;20472;-60
2022/11/23 14:05:36;;;;;;;33.37;19.40;;;9.30;99.90;;;;;;6247476;28;20480;-59
2022/11/23 14:08:41;;;;;;;40.37;22.37;;;9.20;99.90;;;;;;6245362;28;20798;-61
2022/11/23 14:11:59;;;;;;;39.10;21.13;;;9.20;99.90;;;;;;6249532;28;20475;-60
2022/11/23 14:15:08;;;;;;;73.30;38.23;;;9.10;99.90;;;;;;6249891;28;20479;-61
2022/11/23 14:18:49;;;;;;;40.87;21.83;;;9.10;99.90;;;;;;6251170;28;20486;-62
2022/11/23 14:22:02;;;;;;;54.40;29.00;;;9.10;99.90;;;;;;6249797;28;20482;-61
2022/11/23 14:25:21;;;;;;;32.33;18.30;;;9.10;99.90;;;;;;6266711;28;20486;-60
2022/11/23 14:28:39;;;;;;;27.13;17.03;;;9.10;99.90;;;;;;6263722;28;20490;-61
2022/11/23 14:31:51;;;;;;;27.20;16.37;;;9.10;99.90;;;;;;6249615;28;20479;-62
2022/11/23 14:35:05;;;;;;;35.77;19.00;;;9.10;99.90;;;;;;6251977;28;20540;-60
2022/11/23 14:38:48;;;;;;;34.57;18.47;;;9.00;99.90;;;;;;6249945;28;20998;-62
2022/11/23 14:41:56;;;;;;;30.93;17.67;;;8.90;99.90;;;;;;6248359;28;20754;-61
2022/11/23 14:45:05;;;;;;;48.50;25.00;;;8.90;99.90;;;;;;6249487;28;20502;-60
2022/11/23 14:48:22;;;;;;;33.13;18.80;;;8.90;99.90;;;;;;6251780;28;20506;-58
2022/11/23 14:51:26;;;;;;;82.00;38.53;;;8.90;99.90;;;;;;6254222;28;20459;-60
2022/11/23 14:54:30;;;;;;;56.73;29.80;;;8.80;99.90;;;;;;6254700;28;20463;-59
2022/11/23 14:57:41;;;;;;;45.43;20.90;;;8.80;99.90;;;;;;6254213;28;20439;-59
2022/11/23 15:00:46;;;;;;;20.27;13.60;;;8.80;99.90;;;;;;6253763;28;20470;-62
2022/11/23 15:03:57;;;;;;;15.13;10.20;;;8.80;99.90;;;;;;6230679;28;20474;-61
2022/11/23 15:07:03;;;;;;;10.43;8.80;;;8.70;99.90;;;;;;6229840;28;20824;-61
2022/11/23 15:10:17;;;;;;;11.83;10.63;;;8.70;99.90;;;;;;6229046;28;20818;-60
2022/11/23 15:13:22;;;;;;;10.43;7.87;;;8.70;99.90;;;;;;6229215;28;20975;-59
2022/11/23 15:16:27;;;;;;;7.27;6.67;;;8.70;99.90;;;;;;6228964;28;20484;-60
2022/11/23 15:19:30;;;;;;;10.00;6.00;;;8.70;99.90;;;;;;6220565;28;20498;-60
2022/11/23 15:22:36;;;;;;;8.13;7.43;;;8.70;99.90;;;;;;6235840;28;20926;-60
2022/11/23 15:25:51;;;;;;;8.10;7.30;;;8.70;99.90;;;;;;6278108;28;20483;-61
2022/11/23 15:28:54;;;;;;;7.67;6.93;;;8.70;99.90;;;;;;6278146;28;20489;-63
2022/11/23 15:31:59;;;;;;;9.67;7.40;;;8.70;99.90;;;;;;6278395;28;20504;-61
2022/11/23 15:35:27;;;;;;;13.73;7.03;;;8.60;99.90;;;;;;6266776;28;20491;-62
2022/11/23 15:38:31;;;;;;;7.53;6.70;;;8.60;99.90;;;;;;6253380;28;20475;-61
2022/11/23 15:41:35;;;;;;;8.30;7.60;;;8.60;99.90;;;;;;6252579;28;20471;-61
2022/11/23 15:44:39;;;;;;;8.20;7.40;;;8.50;99.90;;;;;;6253163;28;20482;-61
2022/11/23 15:47:43;;;;;;;7.97;7.17;;;8.50;99.90;;;;;;6252929;28;20544;-59
2022/11/23 15:50:50;;;;;;;8.77;7.30;;;8.50;99.90;;;;;;6252915;28;20494;-60
2022/11/23 15:53:54;;;;;;;10.40;7.33;;;8.50;99.90;;;;;;6253644;28;20513;-61
2022/11/23 15:56:57;;;;;;;7.40;6.70;;;8.50;99.90;;;;;;6253257;28;20478;-61
2022/11/23 16:00:03;;;;;;;9.43;7.50;;;8.50;99.90;;;;;;6251671;28;20471;-62
2022/11/23 16:03:29;;;;;;;7.30;6.60;;;8.50;99.90;;;;;;6253372;28;20471;-60
2022/11/23 16:06:37;;;;;;;11.73;8.33;;;8.40;99.90;;;;;;6252962;28;20475;-59
2022/11/23 16:09:42;;;;;;;8.93;7.70;;;8.40;99.90;;;;;;6279019;28;20466;-59
2022/11/23 16:12:56;;;;;;;10.37;8.90;;;8.40;99.90;;;;;;6263244;28;20490;-62
2022/11/23 16:16:00;;;;;;;8.50;7.70;;;8.30;99.90;;;;;;6253361;28;20959;-61
2022/11/23 16:19:19;;;;;;;9.80;8.80;;;8.30;99.90;;;;;;6252389;28;20475;-62
2022/11/23 16:22:28;;;;;;;9.60;8.47;;;8.20;99.90;;;;;;6255225;28;20555;-61
2022/11/23 16:25:33;;;;;;;9.50;7.60;;;8.30;99.90;;;;;;6271573;28;20559;-61